sensor_id;sensor_type;location;lat;lon;timestamp;pressure;altitude;pressure_sealevel;temperature;humidity
32933;BME280;19444;50.518;10.870;2023-04-09T00:02:48;97311.19;;;4.09;100.00
32933;BME280;19444;50.518;10.870;2023-04-09T00:05:45;97315.31;;;3.99;100.00
32933;BME280;19444;50.518;10.870;2023-04-09T00:08:42;97315.41;;;4.05;100.00
32933;BME280;19444;50.518;10.870;2023-04-09T00:11:39;97304.84;;;4.10;100.00
32933;BME280;19444;50.518;10.870;2023-04-09T00:14:36;97311.31;;;4.19;100.00
32933;BME280;19444;50.518;10.870;2023-04-09T00:17:33;97310.66;;;4.07;100.00
32933;BME280;19444;50.518;10.870;2023-04-09T00:20:29;97314.09;;;4.07;100.00
32933;BME280;19444;50.518;10.870;2023-04-09T00:23:26;97321.34;;;4.12;100.00
32933;BME280;19444;50.518;10.870;2023-04-09T00:26:23;97318.84;;;4.05;100.00
32933;BME280;19444;50.518;10.870;2023-04-09T00:29:20;97315.69;;;4.08;100.00
32933;BME280;19444;50.518;10.870;2023-04-09T00:32:17;97307.06;;;4.18;100.00
32933;BME280;19444;50.518;10.870;2023-04-09T00:35:14;97304.41;;;4.18;100.00
32933;BME280;19444;50.518;10.870;2023-04-09T00:38:13;97309.47;;;4.19;100.00
32933;BME280;19444;50.518;10.870;2023-04-09T00:41:10;97294.69;;;4.23;100.00
32933;BME280;19444;50.518;10.870;2023-04-09T00:44:07;97305.47;;;4.17;100.00
32933;BME280;19444;50.518;10.870;2023-04-09T00:47:04;97297.59;;;4.22;100.00
32933;BME280;19444;50.518;10.870;2023-04-09T00:50:01;97302.56;;;4.18;100.00
32933;BME280;19444;50.518;10.870;2023-04-09T00:52:59;97303.06;;;4.15;100.00
32933;BME280;19444;50.518;10.870;2023-04-09T00:55:56;97299.22;;;4.28;100.00
32933;BME280;19444;50.518;10.870;2023-04-09T00:58:53;97299.28;;;4.11;100.00
32933;BME280;19444;50.518;10.870;2023-04-09T01:01:50;97305.72;;;4.15;100.00
32933;BME280;19444;50.518;10.870;2023-04-09T01:04:48;97297.47;;;4.12;100.00
32933;BME280;19444;50.518;10.870;2023-04-09T01:11:58;97297.63;;;4.05;100.00
32933;BME280;19444;50.518;10.870;2023-04-09T01:15:10;97305.09;;;4.08;100.00
32933;BME280;19444;50.518;10.870;2023-04-09T01:18:36;97313.47;;;4.00;100.00
32933;BME280;19444;50.518;10.870;2023-04-09T01:21:37;97304.16;;;3.97;100.00
32933;BME280;19444;50.518;10.870;2023-04-09T01:28:26;97302.63;;;4.02;100.00
32933;BME280;19444;50.518;10.870;2023-04-09T01:31:35;97307.88;;;3.96;100.00
32933;BME280;19444;50.518;10.870;2023-04-09T01:34:33;97307.44;;;4.05;100.00
32933;BME280;19444;50.518;10.870;2023-04-09T01:37:32;97311.31;;;3.97;100.00
32933;BME280;19444;50.518;10.870;2023-04-09T01:40:29;97304.34;;;3.91;100.00
32933;BME280;19444;50.518;10.870;2023-04-09T01:43:26;97310.44;;;3.91;100.00
32933;BME280;19444;50.518;10.870;2023-04-09T01:46:24;97309.25;;;3.82;100.00
32933;BME280;19444;50.518;10.870;2023-04-09T01:49:21;97305.25;;;4.02;100.00
32933;BME280;19444;50.518;10.870;2023-04-09T01:52:19;97307.91;;;4.02;100.00
32933;BME280;19444;50.518;10.870;2023-04-09T01:55:16;97307.91;;;4.02;100.00
32933;BME280;19444;50.518;10.870;2023-04-09T01:58:13;97309.28;;;4.04;100.00
32933;BME280;19444;50.518;10.870;2023-04-09T02:01:19;97312.66;;;3.99;100.00
32933;BME280;19444;50.518;10.870;2023-04-09T02:04:46;97308.41;;;3.98;100.00
32933;BME280;19444;50.518;10.870;2023-04-09T02:07:47;97303.38;;;3.97;100.00
32933;BME280;19444;50.518;10.870;2023-04-09T02:10:51;97307.78;;;3.91;100.00
32933;BME280;19444;50.518;10.870;2023-04-09T02:13:53;97314.63;;;3.87;100.00
32933;BME280;19444;50.518;10.870;2023-04-09T02:16:51;97300.41;;;3.93;100.00
32933;BME280;19444;50.518;10.870;2023-04-09T02:19:48;97304.66;;;3.94;100.00
32933;BME280;19444;50.518;10.870;2023-04-09T02:22:45;97300.88;;;3.90;100.00
32933;BME280;19444;50.518;10.870;2023-04-09T02:25:43;97308.25;;;4.05;100.00
32933;BME280;19444;50.518;10.870;2023-04-09T02:28:40;97309.84;;;4.06;100.00
32933;BME280;19444;50.518;10.870;2023-04-09T02:31:36;97301.50;;;3.97;100.00
32933;BME280;19444;50.518;10.870;2023-04-09T02:34:33;97308.50;;;4.04;100.00
32933;BME280;19444;50.518;10.870;2023-04-09T02:37:30;97305.50;;;4.00;100.00
32933;BME280;19444;50.518;10.870;2023-04-09T02:40:27;97307.69;;;4.03;100.00
32933;BME280;19444;50.518;10.870;2023-04-09T02:43:24;97296.84;;;4.05;100.00
32933;BME280;19444;50.518;10.870;2023-04-09T02:46:21;97297.94;;;3.87;100.00
32933;BME280;19444;50.518;10.870;2023-04-09T02:49:18;97302.59;;;3.80;100.00
32933;BME280;19444;50.518;10.870;2023-04-09T02:52:15;97300.41;;;3.93;100.00
32933;BME280;19444;50.518;10.870;2023-04-09T02:55:12;97300.63;;;3.92;100.00
32933;BME280;19444;50.518;10.870;2023-04-09T02:58:09;97299.69;;;3.81;100.00
32933;BME280;19444;50.518;10.870;2023-04-09T03:01:06;97292.63;;;3.87;100.00
32933;BME280;19444;50.518;10.870;2023-04-09T03:04:03;97293.66;;;3.86;100.00
32933;BME280;19444;50.518;10.870;2023-04-09T03:07:00;97298.84;;;3.76;100.00
32933;BME280;19444;50.518;10.870;2023-04-09T03:09:57;97294.53;;;3.91;100.00
32933;BME280;19444;50.518;10.870;2023-04-09T03:12:53;97295.44;;;3.80;100.00
32933;BME280;19444;50.518;10.870;2023-04-09T03:15:51;97293.53;;;3.76;100.00
32933;BME280;19444;50.518;10.870;2023-04-09T03:18:51;97283.53;;;3.83;100.00
32933;BME280;19444;50.518;10.870;2023-04-09T03:21:48;97285.47;;;3.87;100.00
32933;BME280;19444;50.518;10.870;2023-04-09T03:24:46;97284.84;;;3.80;100.00
32933;BME280;19444;50.518;10.870;2023-04-09T03:27:43;97279.84;;;3.84;100.00
32933;BME280;19444;50.518;10.870;2023-04-09T03:30:40;97290.38;;;3.79;100.00
32933;BME280;19444;50.518;10.870;2023-04-09T03:33:40;97290.88;;;3.76;100.00
32933;BME280;19444;50.518;10.870;2023-04-09T03:36:37;97286.44;;;3.81;100.00
32933;BME280;19444;50.518;10.870;2023-04-09T03:39:34;97280.09;;;3.82;100.00
32933;BME280;19444;50.518;10.870;2023-04-09T03:42:31;97277.94;;;3.79;100.00
32933;BME280;19444;50.518;10.870;2023-04-09T03:45:30;97286.59;;;3.75;100.00
32933;BME280;19444;50.518;10.870;2023-04-09T03:48:27;97282.44;;;3.79;100.00
32933;BME280;19444;50.518;10.870;2023-04-09T03:51:24;97286.19;;;3.83;100.00
32933;BME280;19444;50.518;10.870;2023-04-09T03:54:21;97284.66;;;3.87;100.00
32933;BME280;19444;50.518;10.870;2023-04-09T03:57:17;97275.91;;;3.86;100.00
32933;BME280;19444;50.518;10.870;2023-04-09T04:00:14;97280.28;;;3.76;100.00
32933;BME280;19444;50.518;10.870;2023-04-09T04:03:11;97280.84;;;3.78;100.00
32933;BME280;19444;50.518;10.870;2023-04-09T04:06:10;97283.47;;;3.78;100.00
32933;BME280;19444;50.518;10.870;2023-04-09T04:09:07;97279.78;;;3.79;100.00
32933;BME280;19444;50.518;10.870;2023-04-09T04:12:04;97273.00;;;3.66;100.00
32933;BME280;19444;50.518;10.870;2023-04-09T04:15:01;97283.81;;;3.64;100.00
32933;BME280;19444;50.518;10.870;2023-04-09T04:17:57;97294.28;;;3.54;100.00
32933;BME280;19444;50.518;10.870;2023-04-09T04:20:54;97290.50;;;3.67;100.00
32933;BME280;19444;50.518;10.870;2023-04-09T04:23:51;97290.25;;;3.68;100.00
32933;BME280;19444;50.518;10.870;2023-04-09T04:26:48;97301.13;;;3.50;100.00
32933;BME280;19444;50.518;10.870;2023-04-09T04:29:45;97312.50;;;3.51;100.00
32933;BME280;19444;50.518;10.870;2023-04-09T04:32:42;97313.22;;;3.46;100.00
32933;BME280;19444;50.518;10.870;2023-04-09T04:35:39;97314.13;;;3.52;100.00
32933;BME280;19444;50.518;10.870;2023-04-09T04:38:36;97310.50;;;3.58;100.00
32933;BME280;19444;50.518;10.870;2023-04-09T04:41:33;97315.97;;;3.51;100.00
32933;BME280;19444;50.518;10.870;2023-04-09T04:44:30;97313.38;;;3.56;100.00
32933;BME280;19444;50.518;10.870;2023-04-09T04:47:27;97320.47;;;3.51;100.00
32933;BME280;19444;50.518;10.870;2023-04-09T04:50:24;97311.16;;;3.48;100.00
32933;BME280;19444;50.518;10.870;2023-04-09T04:53:21;97313.16;;;3.58;100.00
32933;BME280;19444;50.518;10.870;2023-04-09T04:56:18;97318.22;;;3.42;100.00
32933;BME280;19444;50.518;10.870;2023-04-09T04:59:14;97318.22;;;3.42;100.00
32933;BME280;19444;50.518;10.870;2023-04-09T05:02:11;97319.81;;;3.43;100.00
32933;BME280;19444;50.518;10.870;2023-04-09T05:05:08;97319.41;;;3.52;100.00
32933;BME280;19444;50.518;10.870;2023-04-09T05:08:05;97327.38;;;3.35;100.00
32933;BME280;19444;50.518;10.870;2023-04-09T05:11:02;97328.66;;;3.32;100.00
32933;BME280;19444;50.518;10.870;2023-04-09T05:13:59;97334.59;;;3.39;100.00
32933;BME280;19444;50.518;10.870;2023-04-09T05:16:56;97333.56;;;3.40;100.00
32933;BME280;19444;50.518;10.870;2023-04-09T05:19:53;97336.91;;;3.36;100.00
32933;BME280;19444;50.518;10.870;2023-04-09T05:22:50;97334.81;;;3.38;100.00
32933;BME280;19444;50.518;10.870;2023-04-09T05:25:48;97337.00;;;3.24;100.00
32933;BME280;19444;50.518;10.870;2023-04-09T05:28:45;97342.81;;;3.09;100.00
32933;BME280;19444;50.518;10.870;2023-04-09T05:31:42;97344.94;;;3.24;100.00
32933;BME280;19444;50.518;10.870;2023-04-09T05:34:39;97335.94;;;3.25;100.00
32933;BME280;19444;50.518;10.870;2023-04-09T05:37:36;97339.91;;;3.39;100.00
32933;BME280;19444;50.518;10.870;2023-04-09T05:40:33;97341.00;;;3.43;100.00
32933;BME280;19444;50.518;10.870;2023-04-09T05:43:31;97349.03;;;3.32;100.00
32933;BME280;19444;50.518;10.870;2023-04-09T05:46:28;97347.69;;;3.29;100.00
32933;BME280;19444;50.518;10.870;2023-04-09T05:49:25;97355.22;;;3.37;100.00
32933;BME280;19444;50.518;10.870;2023-04-09T05:52:21;97351.84;;;3.42;100.00
32933;BME280;19444;50.518;10.870;2023-04-09T05:55:18;97352.56;;;3.54;100.00
32933;BME280;19444;50.518;10.870;2023-04-09T05:58:16;97350.97;;;3.53;100.00
32933;BME280;19444;50.518;10.870;2023-04-09T06:01:14;97348.00;;;3.66;100.00
32933;BME280;19444;50.518;10.870;2023-04-09T06:04:11;97352.66;;;3.59;100.00
32933;BME280;19444;50.518;10.870;2023-04-09T06:07:08;97347.13;;;3.61;100.00
32933;BME280;19444;50.518;10.870;2023-04-09T06:10:06;97350.88;;;3.65;100.00
32933;BME280;19444;50.518;10.870;2023-04-09T06:13:03;97354.31;;;3.65;100.00
32933;BME280;19444;50.518;10.870;2023-04-09T06:16:03;97350.06;;;3.81;100.00
32933;BME280;19444;50.518;10.870;2023-04-09T06:19:00;97359.22;;;3.90;100.00
32933;BME280;19444;50.518;10.870;2023-04-09T06:21:56;97355.59;;;3.96;100.00
32933;BME280;19444;50.518;10.870;2023-04-09T06:24:53;97354.19;;;4.11;100.00
32933;BME280;19444;50.518;10.870;2023-04-09T06:27:51;97362.19;;;4.33;100.00
32933;BME280;19444;50.518;10.870;2023-04-09T06:30:48;97365.88;;;4.32;100.00
32933;BME280;19444;50.518;10.870;2023-04-09T06:33:45;97367.50;;;4.33;100.00
32933;BME280;19444;50.518;10.870;2023-04-09T06:36:42;97365.69;;;4.38;100.00
32933;BME280;19444;50.518;10.870;2023-04-09T06:39:40;97373.72;;;4.43;100.00
32933;BME280;19444;50.518;10.870;2023-04-09T06:42:53;97367.44;;;4.49;100.00
32933;BME280;19444;50.518;10.870;2023-04-09T06:45:50;97375.06;;;4.46;100.00
32933;BME280;19444;50.518;10.870;2023-04-09T06:48:47;97370.69;;;4.78;100.00
32933;BME280;19444;50.518;10.870;2023-04-09T06:51:44;97378.78;;;4.89;100.00
32933;BME280;19444;50.518;10.870;2023-04-09T06:54:42;97376.91;;;4.89;100.00
32933;BME280;19444;50.518;10.870;2023-04-09T06:57:39;97381.44;;;4.89;100.00
32933;BME280;19444;50.518;10.870;2023-04-09T07:00:36;97376.31;;;5.09;100.00
32933;BME280;19444;50.518;10.870;2023-04-09T07:03:32;97376.47;;;5.24;100.00
32933;BME280;19444;50.518;10.870;2023-04-09T07:06:30;97384.72;;;5.23;100.00
32933;BME280;19444;50.518;10.870;2023-04-09T07:09:26;97382.06;;;5.23;100.00
32933;BME280;19444;50.518;10.870;2023-04-09T07:12:33;97379.94;;;5.25;100.00
32933;BME280;19444;50.518;10.870;2023-04-09T07:15:31;97380.31;;;5.38;100.00
32933;BME280;19444;50.518;10.870;2023-04-09T07:18:29;97381.22;;;5.49;100.00
32933;BME280;19444;50.518;10.870;2023-04-09T07:21:25;97384.44;;;5.51;100.00
32933;BME280;19444;50.518;10.870;2023-04-09T07:24:23;97379.19;;;5.93;100.00
32933;BME280;19444;50.518;10.870;2023-04-09T07:27:22;97374.97;;;5.97;100.00
32933;BME280;19444;50.518;10.870;2023-04-09T07:30:19;97373.72;;;6.10;100.00
32933;BME280;19444;50.518;10.870;2023-04-09T07:33:16;97382.81;;;6.19;100.00
32933;BME280;19444;50.518;10.870;2023-04-09T07:36:13;97380.88;;;6.05;100.00
32933;BME280;19444;50.518;10.870;2023-04-09T07:39:10;97376.66;;;6.61;100.00
32933;BME280;19444;50.518;10.870;2023-04-09T07:42:07;97373.50;;;6.69;100.00
32933;BME280;19444;50.518;10.870;2023-04-09T07:45:05;97376.75;;;6.87;100.00
32933;BME280;19444;50.518;10.870;2023-04-09T07:48:02;97380.22;;;7.02;100.00
32933;BME280;19444;50.518;10.870;2023-04-09T07:50:59;97376.25;;;7.05;100.00
32933;BME280;19444;50.518;10.870;2023-04-09T07:53:56;97375.47;;;7.15;100.00
32933;BME280;19444;50.518;10.870;2023-04-09T07:56:53;97371.28;;;7.59;100.00
32933;BME280;19444;50.518;10.870;2023-04-09T07:59:51;97368.34;;;7.86;100.00
32933;BME280;19444;50.518;10.870;2023-04-09T08:02:49;97375.75;;;8.25;100.00
32933;BME280;19444;50.518;10.870;2023-04-09T08:05:46;97367.50;;;8.91;100.00
32933;BME280;19444;50.518;10.870;2023-04-09T08:08:43;97364.22;;;9.78;100.00
32933;BME280;19444;50.518;10.870;2023-04-09T08:11:40;97364.03;;;8.91;100.00
32933;BME280;19444;50.518;10.870;2023-04-09T08:14:37;97355.47;;;9.72;100.00
32933;BME280;19444;50.518;10.870;2023-04-09T08:17:34;97359.75;;;10.55;100.00
32933;BME280;19444;50.518;10.870;2023-04-09T08:20:32;97344.28;;;11.98;100.00
32933;BME280;19444;50.518;10.870;2023-04-09T08:23:30;97354.81;;;10.86;100.00
32933;BME280;19444;50.518;10.870;2023-04-09T08:26:27;97360.03;;;10.30;100.00
32933;BME280;19444;50.518;10.870;2023-04-09T08:29:25;97355.03;;;10.18;100.00
32933;BME280;19444;50.518;10.870;2023-04-09T08:32:22;97357.75;;;12.11;95.86
32933;BME280;19444;50.518;10.870;2023-04-09T08:35:19;97354.22;;;10.70;99.35
32933;BME280;19444;50.518;10.870;2023-04-09T08:38:17;97356.94;;;9.54;100.00
32933;BME280;19444;50.518;10.870;2023-04-09T08:41:23;97354.88;;;8.42;100.00
32933;BME280;19444;50.518;10.870;2023-04-09T08:44:20;97352.56;;;8.85;100.00
32933;BME280;19444;50.518;10.870;2023-04-09T08:47:19;97348.94;;;9.15;100.00
32933;BME280;19444;50.518;10.870;2023-04-09T08:50:17;97343.50;;;8.81;100.00
32933;BME280;19444;50.518;10.870;2023-04-09T08:53:14;97349.34;;;8.88;100.00
32933;BME280;19444;50.518;10.870;2023-04-09T08:56:13;97346.88;;;8.42;100.00
32933;BME280;19444;50.518;10.870;2023-04-09T08:59:15;97348.28;;;9.33;100.00
32933;BME280;19444;50.518;10.870;2023-04-09T09:02:15;97347.66;;;10.05;100.00
32933;BME280;19444;50.518;10.870;2023-04-09T09:05:12;97353.09;;;10.29;98.97
32933;BME280;19444;50.518;10.870;2023-04-09T09:08:12;97332.69;;;12.85;73.84
32933;BME280;19444;50.518;10.870;2023-04-09T09:11:09;97328.59;;;13.82;61.82
32933;BME280;19444;50.518;10.870;2023-04-09T09:14:12;97334.25;;;13.72;68.61
32933;BME280;19444;50.518;10.870;2023-04-09T09:17:09;97326.25;;;12.17;74.69
32933;BME280;19444;50.518;10.870;2023-04-09T09:20:19;97326.00;;;11.67;77.55
32933;BME280;19444;50.518;10.870;2023-04-09T09:23:34;97326.34;;;14.37;66.14
32933;BME280;19444;50.518;10.870;2023-04-09T09:26:37;97317.81;;;15.01;62.18
32933;BME280;19444;50.518;10.870;2023-04-09T09:29:40;97316.75;;;12.33;59.05
32933;BME280;19444;50.518;10.870;2023-04-09T09:32:37;97313.78;;;14.33;62.09
32933;BME280;19444;50.518;10.870;2023-04-09T09:35:47;97306.53;;;15.16;52.64
32933;BME280;19444;50.518;10.870;2023-04-09T09:38:55;97309.88;;;15.30;51.87
32933;BME280;19444;50.518;10.870;2023-04-09T09:42:06;97310.69;;;16.21;50.83
32933;BME280;19444;50.518;10.870;2023-04-09T09:45:17;97311.72;;;15.90;46.77
32933;BME280;19444;50.518;10.870;2023-04-09T09:48:15;97310.56;;;16.85;49.35
32933;BME280;19444;50.518;10.870;2023-04-09T09:51:13;97320.50;;;13.82;52.70
32933;BME280;19444;50.518;10.870;2023-04-09T09:54:11;97315.28;;;12.41;65.50
32933;BME280;19444;50.518;10.870;2023-04-09T09:57:10;97329.63;;;11.25;100.00
32933;BME280;19444;50.518;10.870;2023-04-09T10:00:11;97327.09;;;11.66;98.69
32933;BME280;19444;50.518;10.870;2023-04-09T10:03:26;97323.72;;;11.04;100.00
32933;BME280;19444;50.518;10.870;2023-04-09T10:06:26;97316.34;;;11.99;89.84
32933;BME280;19444;50.518;10.870;2023-04-09T10:09:26;97317.94;;;12.13;71.25
32933;BME280;19444;50.518;10.870;2023-04-09T10:12:24;97313.81;;;11.56;71.39
32933;BME280;19444;50.518;10.870;2023-04-09T10:15:22;97313.78;;;11.23;74.73
32933;BME280;19444;50.518;10.870;2023-04-09T10:18:19;97317.22;;;10.91;83.93
32933;BME280;19444;50.518;10.870;2023-04-09T10:21:44;97311.47;;;12.14;71.91
32933;BME280;19444;50.518;10.870;2023-04-09T10:24:57;97305.34;;;13.41;55.88
32933;BME280;19444;50.518;10.870;2023-04-09T10:27:59;97302.22;;;12.34;61.40
32933;BME280;19444;50.518;10.870;2023-04-09T10:30:57;97311.50;;;12.42;70.83
32933;BME280;19444;50.518;10.870;2023-04-09T10:34:02;97290.16;;;15.82;51.08
32933;BME280;19444;50.518;10.870;2023-04-09T10:37:00;97286.59;;;17.17;45.82
32933;BME280;19444;50.518;10.870;2023-04-09T10:39:57;97289.22;;;15.26;46.90
32933;BME280;19444;50.518;10.870;2023-04-09T10:42:55;97299.47;;;13.03;51.59
32933;BME280;19444;50.518;10.870;2023-04-09T10:45:56;97287.28;;;14.83;48.44
32933;BME280;19444;50.518;10.870;2023-04-09T10:49:18;97276.94;;;15.54;49.47
32933;BME280;19444;50.518;10.870;2023-04-09T10:52:15;97269.22;;;16.76;46.27
32933;BME280;19444;50.518;10.870;2023-04-09T10:58:33;97256.47;;;17.18;42.36
32933;BME280;19444;50.518;10.870;2023-04-09T11:01:29;97262.66;;;18.18;40.08
32933;BME280;19444;50.518;10.870;2023-04-09T11:08:08;97255.44;;;18.46;42.05
32933;BME280;19444;50.518;10.870;2023-04-09T11:11:05;97266.97;;;15.46;42.75
32933;BME280;19444;50.518;10.870;2023-04-09T11:14:02;97274.97;;;14.03;46.31
32933;BME280;19444;50.518;10.870;2023-04-09T11:16:59;97278.13;;;14.05;54.89
32933;BME280;19444;50.518;10.870;2023-04-09T11:19:58;97280.19;;;13.46;51.29
32933;BME280;19444;50.518;10.870;2023-04-09T11:22:55;97278.41;;;13.05;57.51
32933;BME280;19444;50.518;10.870;2023-04-09T11:25:53;97274.63;;;13.20;53.76
32933;BME280;19444;50.518;10.870;2023-04-09T11:28:55;97266.91;;;12.55;55.66
32933;BME280;19444;50.518;10.870;2023-04-09T11:31:52;97268.03;;;12.76;54.53
32933;BME280;19444;50.518;10.870;2023-04-09T11:34:51;97263.00;;;12.33;53.48
32933;BME280;19444;50.518;10.870;2023-04-09T11:37:49;97266.78;;;12.60;62.33
32933;BME280;19444;50.518;10.870;2023-04-09T11:40:47;97277.06;;;12.44;55.41
32933;BME280;19444;50.518;10.870;2023-04-09T11:43:45;97273.47;;;12.62;60.85
32933;BME280;19444;50.518;10.870;2023-04-09T11:46:42;97276.72;;;12.59;57.87
32933;BME280;19444;50.518;10.870;2023-04-09T11:49:40;97269.31;;;12.92;70.33
32933;BME280;19444;50.518;10.870;2023-04-09T11:52:37;97270.19;;;12.88;55.12
32933;BME280;19444;50.518;10.870;2023-04-09T11:55:35;97265.81;;;13.28;55.46
32933;BME280;19444;50.518;10.870;2023-04-09T11:58:32;97260.47;;;15.47;50.67
32933;BME280;19444;50.518;10.870;2023-04-09T12:01:32;97263.47;;;14.85;47.24
32933;BME280;19444;50.518;10.870;2023-04-09T12:04:29;97262.03;;;13.82;47.87
32933;BME280;19444;50.518;10.870;2023-04-09T12:07:32;97270.63;;;12.81;50.03
32933;BME280;19444;50.518;10.870;2023-04-09T12:10:32;97259.50;;;13.32;49.20
32933;BME280;19444;50.518;10.870;2023-04-09T12:13:32;97265.66;;;13.10;57.00
32933;BME280;19444;50.518;10.870;2023-04-09T12:16:31;97257.28;;;12.76;56.96
32933;BME280;19444;50.518;10.870;2023-04-09T12:19:28;97258.00;;;12.68;52.17
32933;BME280;19444;50.518;10.870;2023-04-09T12:22:25;97261.91;;;12.48;52.21
32933;BME280;19444;50.518;10.870;2023-04-09T12:25:22;97253.91;;;12.70;52.46
32933;BME280;19444;50.518;10.870;2023-04-09T12:28:19;97260.63;;;12.45;50.74
32933;BME280;19444;50.518;10.870;2023-04-09T12:31:16;97256.88;;;12.19;50.95
32933;BME280;19444;50.518;10.870;2023-04-09T12:34:13;97254.69;;;12.35;51.35
32933;BME280;19444;50.518;10.870;2023-04-09T12:37:10;97260.53;;;12.37;50.29
32933;BME280;19444;50.518;10.870;2023-04-09T12:40:07;97259.13;;;12.39;50.41
32933;BME280;19444;50.518;10.870;2023-04-09T12:43:05;97261.13;;;12.47;50.85
32933;BME280;19444;50.518;10.870;2023-04-09T12:46:01;97254.44;;;12.59;49.60
32933;BME280;19444;50.518;10.870;2023-04-09T12:48:58;97254.38;;;12.36;48.97
32933;BME280;19444;50.518;10.870;2023-04-09T12:51:55;97249.31;;;13.07;47.91
32933;BME280;19444;50.518;10.870;2023-04-09T12:54:52;97236.53;;;12.90;48.29
32933;BME280;19444;50.518;10.870;2023-04-09T12:57:50;97235.13;;;12.93;54.39
32933;BME280;19444;50.518;10.870;2023-04-09T13:00:47;97246.00;;;12.24;50.73
32933;BME280;19444;50.518;10.870;2023-04-09T13:03:44;97237.22;;;12.46;59.66
32933;BME280;19444;50.518;10.870;2023-04-09T13:06:41;97241.59;;;13.14;58.10
32933;BME280;19444;50.518;10.870;2023-04-09T13:09:38;97241.72;;;12.87;50.66
32933;BME280;19444;50.518;10.870;2023-04-09T13:12:35;97241.13;;;13.12;49.46
32933;BME280;19444;50.518;10.870;2023-04-09T13:15:32;97241.72;;;12.87;54.33
32933;BME280;19444;50.518;10.870;2023-04-09T13:18:29;97245.31;;;12.82;49.46
32933;BME280;19444;50.518;10.870;2023-04-09T13:21:26;97230.53;;;12.57;50.18
32933;BME280;19444;50.518;10.870;2023-04-09T13:24:23;97227.94;;;12.66;50.87
32933;BME280;19444;50.518;10.870;2023-04-09T13:27:19;97231.31;;;12.71;51.56
32933;BME280;19444;50.518;10.870;2023-04-09T13:30:16;97233.47;;;12.69;51.50
32933;BME280;19444;50.518;10.870;2023-04-09T13:33:13;97228.88;;;12.84;53.37
32933;BME280;19444;50.518;10.870;2023-04-09T13:36:10;97229.75;;;12.57;51.52
32933;BME280;19444;50.518;10.870;2023-04-09T13:39:07;97231.09;;;12.68;55.44
32933;BME280;19444;50.518;10.870;2023-04-09T13:42:04;97231.66;;;12.78;57.74
32933;BME280;19444;50.518;10.870;2023-04-09T13:45:10;97217.88;;;12.58;51.74
32933;BME280;19444;50.518;10.870;2023-04-09T13:48:06;97226.88;;;12.53;52.94
32933;BME280;19444;50.518;10.870;2023-04-09T13:51:04;97218.81;;;12.53;53.75
32933;BME280;19444;50.518;10.870;2023-04-09T13:54:01;97219.38;;;12.50;51.03
32933;BME280;19444;50.518;10.870;2023-04-09T13:57:02;97216.66;;;13.00;51.53
32933;BME280;19444;50.518;10.870;2023-04-09T13:59:59;97210.31;;;13.18;51.44
32933;BME280;19444;50.518;10.870;2023-04-09T14:02:59;97209.84;;;12.80;49.39
32933;BME280;19444;50.518;10.870;2023-04-09T14:05:58;97195.38;;;13.34;49.14
32933;BME280;19444;50.518;10.870;2023-04-09T14:08:55;97191.53;;;13.89;48.31
32933;BME280;19444;50.518;10.870;2023-04-09T14:11:52;97194.94;;;13.41;47.03
32933;BME280;19444;50.518;10.870;2023-04-09T14:14:51;97194.94;;;12.96;49.78
32933;BME280;19444;50.518;10.870;2023-04-09T14:17:47;97181.88;;;14.97;45.58
32933;BME280;19444;50.518;10.870;2023-04-09T14:20:44;97180.22;;;15.48;43.28
32933;BME280;19444;50.518;10.870;2023-04-09T14:23:41;97179.41;;;15.56;45.35
32933;BME280;19444;50.518;10.870;2023-04-09T14:26:38;97170.38;;;16.91;40.02
32933;BME280;19444;50.518;10.870;2023-04-09T14:29:35;97164.00;;;18.23;51.83
32933;BME280;19444;50.518;10.870;2023-04-09T14:32:32;97165.31;;;17.68;42.63
32933;BME280;19444;50.518;10.870;2023-04-09T14:35:29;97162.28;;;16.70;40.33
32933;BME280;19444;50.518;10.870;2023-04-09T14:38:26;97161.78;;;16.89;50.19
32933;BME280;19444;50.518;10.870;2023-04-09T14:41:23;97163.19;;;16.95;40.83
32933;BME280;19444;50.518;10.870;2023-04-09T14:44:20;97160.31;;;15.61;42.20
32933;BME280;19444;50.518;10.870;2023-04-09T14:47:17;97171.41;;;14.52;48.83
32933;BME280;19444;50.518;10.870;2023-04-09T14:50:14;97166.41;;;14.19;49.41
32933;BME280;19444;50.518;10.870;2023-04-09T14:53:10;97173.22;;;13.69;47.24
32933;BME280;19444;50.518;10.870;2023-04-09T14:56:08;97171.84;;;13.18;50.86
32933;BME280;19444;50.518;10.870;2023-04-09T14:59:05;97175.03;;;12.61;51.97
32933;BME280;19444;50.518;10.870;2023-04-09T15:02:02;97171.72;;;12.42;55.33
32933;BME280;19444;50.518;10.870;2023-04-09T15:04:59;97170.97;;;12.28;51.55
32933;BME280;19444;50.518;10.870;2023-04-09T15:07:56;97179.16;;;12.09;52.58
32933;BME280;19444;50.518;10.870;2023-04-09T15:10:54;97176.03;;;12.15;52.59
32933;BME280;19444;50.518;10.870;2023-04-09T15:13:51;97172.78;;;12.05;53.98
32933;BME280;19444;50.518;10.870;2023-04-09T15:16:48;97175.56;;;12.00;52.70
32933;BME280;19444;50.518;10.870;2023-04-09T15:19:45;97177.69;;;11.89;53.03
32933;BME280;19444;50.518;10.870;2023-04-09T15:22:42;97182.34;;;11.83;53.58
32933;BME280;19444;50.518;10.870;2023-04-09T15:25:39;97181.66;;;11.91;56.20
32933;BME280;19444;50.518;10.870;2023-04-09T15:28:36;97180.63;;;11.74;56.18
32933;BME280;19444;50.518;10.870;2023-04-09T15:31:33;97179.22;;;11.76;59.19
32933;BME280;19444;50.518;10.870;2023-04-09T15:34:30;97182.03;;;11.71;61.38
32933;BME280;19444;50.518;10.870;2023-04-09T15:37:27;97180.25;;;11.80;57.74
32933;BME280;19444;50.518;10.870;2023-04-09T15:40:24;97188.91;;;11.91;59.75
32933;BME280;19444;50.518;10.870;2023-04-09T15:43:22;97185.22;;;12.01;56.90
32933;BME280;19444;50.518;10.870;2023-04-09T15:46:19;97182.22;;;11.88;59.08
32933;BME280;19444;50.518;10.870;2023-04-09T15:49:17;97174.97;;;12.03;58.28